createdAt,value
2023-01-27T00:00:24.501Z,-0.26
2023-01-27T00:01:24.984Z,-0.18
2023-01-27T00:02:25.346Z,-0.26
2023-01-27T00:03:25.846Z,-0.3
2023-01-27T00:04:26.254Z,-0.26
2023-01-27T00:05:26.186Z,-0.2
2023-01-27T00:06:26.677Z,-0.1
2023-01-27T00:07:26.881Z,-0.2
2023-01-27T00:08:27.113Z,-0.28
2023-01-27T00:09:27.873Z,-0.18
2023-01-27T00:10:29.076Z,-0.18
2023-01-27T00:11:29.558Z,-0.12
2023-01-27T00:12:29.459Z,-0.17
2023-01-27T00:13:30.667Z,-0.17
2023-01-27T00:14:31.579Z,-0.02
2023-01-27T00:15:32.552Z,0.02
2023-01-27T00:16:32.619Z,-0.03
2023-01-27T00:17:33.859Z,-0.05
2023-01-27T00:18:33.503Z,-0.02
2023-01-27T00:19:33.991Z,0
2023-01-27T00:20:34.930Z,0.01
2023-01-27T00:21:35.151Z,-0.02
2023-01-27T00:22:36.351Z,-0.06
2023-01-27T00:23:36.334Z,-0.03
2023-01-27T00:24:36.869Z,0.06
2023-01-27T00:25:36.510Z,0.08
2023-01-27T00:26:37.725Z,-0.03
2023-01-27T00:27:38.207Z,-0.05
2023-01-27T00:28:38.702Z,-0.05
2023-01-27T00:29:38.474Z,0.01
2023-01-27T00:30:39.172Z,0.05
2023-01-27T00:31:39.792Z,-0.05
2023-01-27T00:32:39.890Z,-0.06
2023-01-27T00:33:40.438Z,-0.13
2023-01-27T00:34:41.078Z,-0.13
2023-01-27T00:35:41.423Z,-0.24
2023-01-27T00:36:41.838Z,-0.13
2023-01-27T00:37:43.038Z,-0.26
2023-01-27T00:38:44.260Z,-0.23
2023-01-27T00:39:44.290Z,-0.17
2023-01-27T00:40:44.794Z,-0.21
2023-01-27T00:41:44.994Z,-0.27
2023-01-27T00:42:45.657Z,-0.13
2023-01-27T00:43:46.335Z,-0.12
2023-01-27T00:44:46.831Z,-0.1
2023-01-27T00:45:46.748Z,-0.09
2023-01-27T00:46:47.773Z,-0.1
2023-01-27T00:47:48.103Z,-0.09
2023-01-27T00:48:48.038Z,-0.07
2023-01-27T00:49:49.452Z,0
2023-01-27T00:50:49.660Z,-0.03
2023-01-27T00:51:50.574Z,-0.15
2023-01-27T00:52:51.345Z,-0.1
2023-01-27T00:53:52.279Z,-0.05
2023-01-27T00:54:52.811Z,-0.1
2023-01-27T00:55:53.725Z,-0.03
2023-01-27T00:56:53.922Z,0
2023-01-27T00:57:54.859Z,0.02
2023-01-27T00:58:55.491Z,-0.02
2023-01-27T00:59:58.882Z,-0.02
2023-01-27T01:00:56.914Z,0
2023-01-27T01:01:57.263Z,0
2023-01-27T01:02:58.116Z,0.08
2023-01-27T01:03:58.920Z,-0.03
2023-01-27T01:04:58.836Z,0.02
2023-01-27T01:05:59.789Z,0.06
2023-01-27T01:07:00.705Z,0.01
2023-01-27T01:08:01.195Z,-0.06
2023-01-27T01:09:01.398Z,0.05
2023-01-27T01:10:01.637Z,-0.09
2023-01-27T01:11:02.167Z,-0.02
2023-01-27T01:12:02.513Z,-0.07
2023-01-27T01:13:02.731Z,0.01
2023-01-27T01:14:02.976Z,0
2023-01-27T01:15:03.871Z,-0.07
2023-01-27T01:16:04.664Z,-0.1
2023-01-27T01:17:04.516Z,0.01
2023-01-27T01:18:05.074Z,0.01
2023-01-27T01:19:05.568Z,0.05
2023-01-27T01:20:05.956Z,0.05
2023-01-27T01:21:06.266Z,-0.17
2023-01-27T01:22:05.926Z,-0.13
2023-01-27T01:23:07.111Z,-0.13
2023-01-27T01:24:08.272Z,-0.09
2023-01-27T01:25:08.315Z,-0.12
2023-01-27T01:26:08.565Z,-0.23
2023-01-27T01:27:09.809Z,-0.18
2023-01-27T01:28:09.752Z,-0.23
2023-01-27T01:29:10.653Z,-0.17
2023-01-27T01:30:11.677Z,-0.26
2023-01-27T01:31:12.771Z,-0.21
2023-01-27T01:32:12.817Z,-0.2
2023-01-27T01:33:14.073Z,-0.27
2023-01-27T01:34:14.593Z,-0.31
2023-01-27T01:35:14.507Z,-0.21
2023-01-27T01:36:15.588Z,-0.28
2023-01-27T01:37:16.523Z,-0.3
2023-01-27T01:38:17.173Z,-0.26
2023-01-27T01:39:18.384Z,-0.24
2023-01-27T01:40:19.752Z,-0.15
2023-01-27T01:41:19.450Z,-0.17
2023-01-27T01:42:20.381Z,-0.24
2023-01-27T01:43:21.304Z,-0.26
2023-01-27T01:44:21.946Z,-0.15
2023-01-27T01:45:22.876Z,-0.15
2023-01-27T01:46:23.352Z,-0.13
2023-01-27T01:47:23.694Z,-0.18
2023-01-27T01:48:24.665Z,-0.13
2023-01-27T01:49:25.406Z,-0.24
2023-01-27T01:50:26.130Z,-0.13
2023-01-27T01:51:27.378Z,-0.13
2023-01-27T01:52:27.872Z,-0.09
2023-01-27T01:53:28.057Z,-0.2
2023-01-27T01:54:28.990Z,-0.27
2023-01-27T01:55:29.245Z,-0.09
2023-01-27T01:56:30.189Z,-0.27
2023-01-27T01:57:31.133Z,-0.21
2023-01-27T01:58:32.065Z,-0.26
2023-01-27T01:59:33.076Z,-0.24
2023-01-27T02:00:33.267Z,-0.28
2023-01-27T02:01:33.931Z,-0.2
2023-01-27T02:02:34.716Z,-0.12
2023-01-27T02:03:34.779Z,-0.24
2023-01-27T02:04:35.728Z,-0.27
2023-01-27T02:05:36.627Z,-0.27
2023-01-27T02:06:37.277Z,-0.26
2023-01-27T02:07:37.780Z,-0.2
2023-01-27T02:08:37.439Z,-0.1
2023-01-27T02:09:38.655Z,-0.12
2023-01-27T02:10:39.106Z,-0.15
2023-01-27T02:11:39.328Z,-0.15
2023-01-27T02:12:40.596Z,-0.15
2023-01-27T02:13:40.502Z,-0.12
2023-01-27T02:14:40.739Z,-0.2
2023-01-27T02:15:41.399Z,-0.15
2023-01-27T02:16:42.254Z,-0.13
2023-01-27T02:17:42.387Z,-0.09
2023-01-27T02:18:43.364Z,-0.17
2023-01-27T02:19:43.848Z,-0.09
2023-01-27T02:20:44.194Z,-0.13
2023-01-27T02:21:44.137Z,-0.06
2023-01-27T02:22:44.509Z,-0.15
2023-01-27T02:23:45.718Z,-0.07
2023-01-27T02:24:46.407Z,-0.12
2023-01-27T02:25:46.380Z,-0.26
2023-01-27T02:26:47.928Z,-0.24
2023-01-27T02:27:48.141Z,-0.23
2023-01-27T02:28:48.060Z,-0.21
2023-01-27T02:29:49.010Z,-0.3
2023-01-27T02:30:50.070Z,-0.3
2023-01-27T02:31:50.709Z,-0.27
2023-01-27T02:32:50.817Z,-0.23
2023-01-27T02:33:51.957Z,-0.27
2023-01-27T02:34:52.083Z,-0.24
2023-01-27T02:35:53.097Z,-0.31
2023-01-27T02:36:53.043Z,-0.27
2023-01-27T02:37:54.255Z,-0.31
2023-01-27T02:38:54.463Z,-0.26
2023-01-27T02:39:55.716Z,-0.3
2023-01-27T02:40:55.508Z,-0.24
2023-01-27T02:41:55.442Z,-0.26
2023-01-27T02:42:56.357Z,-0.31
2023-01-27T02:43:57.306Z,-0.35
2023-01-27T02:44:58.600Z,-0.31
2023-01-27T02:45:58.627Z,-0.28
2023-01-27T02:46:58.779Z,-0.26
2023-01-27T02:47:59.089Z,-0.24
2023-01-27T02:48:59.623Z,-0.28
2023-01-27T02:50:00.157Z,-0.24
2023-01-27T02:51:00.022Z,-0.39
2023-01-27T02:52:01.519Z,-0.35
2023-01-27T02:53:01.444Z,-0.39
2023-01-27T02:54:02.655Z,-0.33
2023-01-27T02:55:02.967Z,-0.27
2023-01-27T02:56:02.997Z,-0.33
2023-01-27T02:57:03.315Z,-0.28
2023-01-27T02:58:03.744Z,-0.27
2023-01-27T02:59:04.674Z,-0.28
2023-01-27T03:00:05.887Z,-0.31
2023-01-27T03:01:06.781Z,-0.33
2023-01-27T03:02:07.699Z,-0.26
2023-01-27T03:03:07.749Z,-0.3
2023-01-27T03:04:09.008Z,-0.28
2023-01-27T03:05:09.284Z,-0.27
2023-01-27T03:06:08.889Z,-0.23
2023-01-27T03:07:09.521Z,-0.24
2023-01-27T03:08:09.725Z,-0.17
2023-01-27T03:09:10.126Z,-0.27
2023-01-27T03:10:11.687Z,-0.21
2023-01-27T03:11:11.726Z,-0.24
2023-01-27T03:12:13.270Z,-0.24
2023-01-27T03:13:14.229Z,-0.21
2023-01-27T03:14:14.776Z,-0.26
2023-01-27T03:15:15.893Z,-0.26
2023-01-27T03:16:19.126Z,-0.2
2023-01-27T03:17:17.068Z,-0.18
2023-01-27T03:18:17.303Z,-0.24
2023-01-27T03:19:17.948Z,-0.26
2023-01-27T03:20:17.923Z,-0.21
2023-01-27T03:21:19.340Z,-0.18
2023-01-27T03:22:19.555Z,-0.26
2023-01-27T03:23:19.782Z,-0.28
2023-01-27T03:24:19.903Z,-0.27
2023-01-27T03:25:21.696Z,-0.26
2023-01-27T03:26:21.939Z,-0.21
2023-01-27T03:27:21.848Z,-0.21
2023-01-27T03:28:22.511Z,-0.23
2023-01-27T03:29:23.569Z,-0.21
2023-01-27T03:30:24.790Z,-0.26
2023-01-27T03:31:26.340Z,-0.26
2023-01-27T03:32:25.720Z,-0.24
2023-01-27T03:33:26.602Z,-0.21
2023-01-27T03:34:27.564Z,-0.21
2023-01-27T03:35:28.180Z,-0.21
2023-01-27T03:36:28.484Z,-0.24
2023-01-27T03:37:28.408Z,-0.28
2023-01-27T03:38:29.602Z,-0.24
2023-01-27T03:39:29.547Z,-0.23
2023-01-27T03:40:30.899Z,-0.23
2023-01-27T03:41:31.213Z,-0.15
2023-01-27T03:42:32.404Z,-0.23
2023-01-27T03:43:32.382Z,-0.24
2023-01-27T03:44:33.335Z,-0.27
2023-01-27T03:45:34.238Z,-0.3
2023-01-27T03:46:35.011Z,-0.27
2023-01-27T03:47:35.434Z,-0.41
2023-01-27T03:48:36.721Z,-0.42
2023-01-27T03:49:36.729Z,-0.42
2023-01-27T03:50:38.323Z,-0.42
2023-01-27T03:51:37.773Z,-0.38
2023-01-27T03:52:38.963Z,-0.42
2023-01-27T03:53:39.475Z,-0.48
2023-01-27T03:54:40.438Z,-0.48
2023-01-27T03:55:40.808Z,-0.42
2023-01-27T03:56:40.567Z,-0.45
2023-01-27T03:57:41.606Z,-0.54
2023-01-27T03:58:41.827Z,-0.46
2023-01-27T03:59:42.923Z,-0.54
2023-01-27T04:00:43.141Z,-0.54
2023-01-27T04:01:44.314Z,-0.49
2023-01-27T04:02:44.571Z,-0.49
2023-01-27T04:03:44.983Z,-0.48
2023-01-27T04:04:46.028Z,-0.44
2023-01-27T04:05:46.057Z,-0.46
2023-01-27T04:06:45.993Z,-0.44
2023-01-27T04:07:47.215Z,-0.45
2023-01-27T04:08:47.703Z,-0.46
2023-01-27T04:09:47.363Z,-0.46
2023-01-27T04:10:48.723Z,-0.44
2023-01-27T04:11:48.959Z,-0.46
2023-01-27T04:12:49.320Z,-0.46
2023-01-27T04:13:50.234Z,-0.46
2023-01-27T04:14:50.549Z,-0.42
2023-01-27T04:15:51.238Z,-0.45
2023-01-27T04:16:51.236Z,-0.42
2023-01-27T04:17:52.150Z,-0.48
2023-01-27T04:18:54.904Z,-0.41
2023-01-27T04:19:53.169Z,-0.45
2023-01-27T04:20:53.352Z,-0.42
2023-01-27T04:21:54.373Z,-0.46
2023-01-27T04:22:54.584Z,-0.59
2023-01-27T04:23:55.187Z,-0.56
2023-01-27T04:24:55.741Z,-0.59
2023-01-27T04:25:55.997Z,-0.66
2023-01-27T04:26:56.502Z,-0.6
2023-01-27T04:27:56.488Z,-0.53
2023-01-27T04:28:57.121Z,-0.62
2023-01-27T04:29:57.387Z,-0.62
2023-01-27T04:30:58.472Z,-0.67
2023-01-27T04:31:59.207Z,-0.62
2023-01-27T04:33:00.617Z,-0.64
2023-01-27T04:34:01.145Z,-0.56
2023-01-27T04:35:01.737Z,-0.46
2023-01-27T04:36:02.448Z,-0.49
2023-01-27T04:37:03.787Z,-0.53
2023-01-27T04:38:03.716Z,-0.45
2023-01-27T04:39:04.624Z,-0.49
2023-01-27T04:40:05.472Z,-0.41
2023-01-27T04:41:05.694Z,-0.42
2023-01-27T04:42:06.029Z,-0.54
2023-01-27T04:43:06.330Z,-0.6
2023-01-27T04:44:06.819Z,-0.59
2023-01-27T04:45:07.317Z,-0.66
2023-01-27T04:46:08.166Z,-0.67
2023-01-27T04:47:08.121Z,-0.64
2023-01-27T04:48:08.085Z,-0.69
2023-01-27T04:49:09.032Z,-0.63
2023-01-27T04:50:09.576Z,-0.69
2023-01-27T04:51:10.102Z,-0.63
2023-01-27T04:52:10.556Z,-0.66
2023-01-27T04:53:10.958Z,-0.63
2023-01-27T04:54:12.447Z,-0.66
2023-01-27T04:55:13.071Z,-0.69
2023-01-27T04:56:13.751Z,-0.74
2023-01-27T04:57:13.731Z,-0.6
2023-01-27T04:58:14.641Z,-0.8
2023-01-27T04:59:15.364Z,-0.78
2023-01-27T05:00:17.624Z,-0.75
2023-01-27T05:01:17.143Z,-0.89
2023-01-27T05:02:18.044Z,-0.81
2023-01-27T05:03:18.506Z,-0.89
2023-01-27T05:04:18.430Z,-0.89
2023-01-27T05:05:20.165Z,-0.93
2023-01-27T05:06:20.681Z,-0.97
2023-01-27T05:07:21.392Z,-0.82
2023-01-27T05:08:21.982Z,-0.91
2023-01-27T05:09:21.930Z,-0.87
2023-01-27T05:10:22.585Z,-0.87
2023-01-27T05:11:23.793Z,-0.89
2023-01-27T05:12:24.502Z,-0.74
2023-01-27T05:13:24.993Z,-0.85
2023-01-27T05:14:25.197Z,-0.85
2023-01-27T05:15:25.847Z,-0.81
2023-01-27T05:16:26.499Z,-0.91
2023-01-27T05:17:27.261Z,-0.74
2023-01-27T05:18:27.545Z,-0.77
2023-01-27T05:19:27.901Z,-0.81
2023-01-27T05:20:28.819Z,-0.82
2023-01-27T05:21:29.166Z,-0.8
2023-01-27T05:22:29.370Z,-0.75
2023-01-27T05:23:30.152Z,-0.63
2023-01-27T05:24:31.022Z,-0.69
2023-01-27T05:25:32.162Z,-0.67
2023-01-27T05:26:32.467Z,-0.64
2023-01-27T05:27:32.708Z,-0.57
2023-01-27T05:28:34.067Z,-0.53
2023-01-27T05:29:33.285Z,-0.53
2023-01-27T05:30:33.705Z,-0.64
2023-01-27T05:31:35.001Z,-0.56
2023-01-27T05:32:35.193Z,-0.42
2023-01-27T05:33:35.865Z,-0.56
2023-01-27T05:34:36.105Z,-0.51
2023-01-27T05:35:37.345Z,-0.49
2023-01-27T05:36:37.920Z,-0.46
2023-01-27T05:37:38.401Z,-0.49
2023-01-27T05:38:38.334Z,-0.46
2023-01-27T05:39:38.396Z,-0.54
2023-01-27T05:40:39.021Z,-0.45
2023-01-27T05:41:40.267Z,-0.53
2023-01-27T05:42:41.300Z,-0.46
2023-01-27T05:43:41.782Z,-0.45
2023-01-27T05:44:41.134Z,-0.53
2023-01-27T05:45:42.068Z,-0.56
2023-01-27T05:46:42.317Z,-0.45
2023-01-27T05:47:42.425Z,-0.48
2023-01-27T05:48:43.429Z,-0.42
2023-01-27T05:49:44.113Z,-0.46
2023-01-27T05:50:45.058Z,-0.51
2023-01-27T05:51:45.627Z,-0.42
2023-01-27T05:52:46.367Z,-0.48
2023-01-27T05:53:47.578Z,-0.41
2023-01-27T05:54:48.789Z,-0.45
2023-01-27T05:55:49.418Z,-0.49
2023-01-27T05:56:49.984Z,-0.42
2023-01-27T05:57:49.917Z,-0.36
2023-01-27T05:58:51.123Z,-0.44
2023-01-27T05:59:51.671Z,-0.36
2023-01-27T06:00:52.151Z,-0.42
2023-01-27T06:01:53.041Z,-0.36
2023-01-27T06:02:54.324Z,-0.45
2023-01-27T06:03:54.139Z,-0.41
2023-01-27T06:04:55.432Z,-0.44
2023-01-27T06:05:56.626Z,-0.42
2023-01-27T06:06:56.581Z,-0.38
2023-01-27T06:07:58.236Z,-0.35
2023-01-27T06:08:58.173Z,-0.39
2023-01-27T06:09:59.083Z,-0.42
2023-01-27T06:10:59.434Z,-0.44
2023-01-27T06:12:00.957Z,-0.42
2023-01-27T06:13:00.682Z,-0.46
2023-01-27T06:14:01.932Z,-0.51
2023-01-27T06:15:01.996Z,-0.51
2023-01-27T06:16:02.928Z,-0.51
2023-01-27T06:17:03.279Z,-0.53
2023-01-27T06:18:03.562Z,-0.46
2023-01-27T06:19:04.044Z,-0.51
2023-01-27T06:20:04.685Z,-0.59
2023-01-27T06:21:05.634Z,-0.6
2023-01-27T06:22:06.429Z,-0.67
2023-01-27T06:23:07.519Z,-0.59
2023-01-27T06:24:08.524Z,-0.57
2023-01-27T06:25:08.544Z,-0.62
2023-01-27T06:26:09.185Z,-0.67
2023-01-27T06:27:09.216Z,-0.54
2023-01-27T06:28:27.129Z,-0.67
2023-01-27T06:29:10.354Z,-0.6
2023-01-27T06:30:11.336Z,-0.62
2023-01-27T06:31:12.500Z,-0.66
2023-01-27T06:32:12.636Z,-0.6
2023-01-27T06:33:15.518Z,-0.64
2023-01-27T06:34:14.027Z,-0.69
2023-01-27T06:35:14.747Z,-0.72
2023-01-27T06:36:15.182Z,-0.6
2023-01-27T06:37:15.793Z,-0.67
2023-01-27T06:38:17.900Z,-0.66
2023-01-27T06:39:16.811Z,-0.64
2023-01-27T06:40:17.705Z,-0.66
2023-01-27T06:41:17.914Z,-0.74
2023-01-27T06:42:18.655Z,-0.74
2023-01-27T06:43:18.991Z,-0.67
2023-01-27T06:44:19.694Z,-0.69
2023-01-27T06:45:19.915Z,-0.75
2023-01-27T06:46:21.071Z,-0.82
2023-01-27T06:47:21.077Z,-0.72
2023-01-27T06:48:21.704Z,-0.78
2023-01-27T06:49:23.091Z,-0.82
2023-01-27T06:50:23.632Z,-0.72
2023-01-27T06:51:24.213Z,-0.78
2023-01-27T06:52:24.437Z,-0.78
2023-01-27T06:53:25.190Z,-0.89
2023-01-27T06:54:25.040Z,-0.81
2023-01-27T06:55:25.663Z,-0.72
2023-01-27T06:56:25.593Z,-0.75
2023-01-27T06:57:26.383Z,-0.66
2023-01-27T06:58:26.643Z,-0.69
2023-01-27T06:59:26.584Z,-0.72
2023-01-27T07:00:27.818Z,-0.72
2023-01-27T07:01:29.233Z,-0.74
2023-01-27T07:02:29.820Z,-0.7
2023-01-27T07:03:29.777Z,-0.63
2023-01-27T07:04:31.149Z,-0.8
2023-01-27T07:05:30.988Z,-0.74
2023-01-27T07:06:31.306Z,-0.67
2023-01-27T07:07:31.807Z,-0.63
2023-01-27T07:08:32.299Z,-0.67
2023-01-27T07:09:52.212Z,-0.74
2023-01-27T07:10:32.628Z,-0.67
2023-01-27T07:11:33.860Z,-0.75
2023-01-27T07:12:34.405Z,-0.66
2023-01-27T07:13:34.529Z,-0.62
2023-01-27T07:14:34.184Z,-0.66
2023-01-27T07:15:34.872Z,-0.72
2023-01-27T07:16:35.194Z,-0.64
2023-01-27T07:17:35.991Z,-0.74
2023-01-27T07:18:36.229Z,-0.66
2023-01-27T07:19:36.841Z,-0.64
2023-01-27T07:20:37.491Z,-0.63
2023-01-27T07:21:38.145Z,-0.67
2023-01-27T07:22:38.378Z,-0.56
2023-01-27T07:23:38.399Z,-0.49
2023-01-27T07:24:38.981Z,-0.53
2023-01-27T07:25:38.905Z,-0.49
2023-01-27T07:26:40.106Z,-0.44
2023-01-27T07:27:41.074Z,-0.42
2023-01-27T07:28:41.035Z,-0.41
2023-01-27T07:29:42.271Z,-0.35
2023-01-27T07:30:42.947Z,-0.35
2023-01-27T07:31:42.925Z,-0.42
2023-01-27T07:32:44.219Z,-0.27
2023-01-27T07:33:44.705Z,-0.24
2023-01-27T07:34:44.944Z,-0.35
2023-01-27T07:35:46.168Z,-0.26
2023-01-27T07:36:46.847Z,-0.27
2023-01-27T07:37:47.399Z,-0.23
2023-01-27T07:38:47.463Z,-0.28
2023-01-27T07:39:48.021Z,-0.27
2023-01-27T07:40:47.970Z,-0.24
2023-01-27T07:41:48.596Z,-0.23
2023-01-27T07:42:49.861Z,-0.24
2023-01-27T07:43:52.766Z,-0.23
2023-01-27T07:44:51.036Z,-0.27
2023-01-27T07:45:52.102Z,-0.24
2023-01-27T07:46:52.316Z,-0.26
2023-01-27T07:47:53.543Z,-0.18
2023-01-27T07:48:53.475Z,-0.17
2023-01-27T07:49:53.968Z,-0.12
2023-01-27T07:50:53.939Z,-0.13
2023-01-27T07:51:55.464Z,-0.1
2023-01-27T07:52:55.715Z,-0.13
2023-01-27T07:53:56.360Z,-0.09
2023-01-27T07:54:57.456Z,-0.13
2023-01-27T07:55:58.004Z,-0.12
2023-01-27T07:56:58.527Z,-0.1
2023-01-27T07:57:58.528Z,-0.03
2023-01-27T07:58:58.940Z,0.06
2023-01-27T07:59:59.938Z,0.01
2023-01-27T08:01:00.891Z,0.05
2023-01-27T08:02:00.641Z,-0.06
2023-01-27T08:03:01.749Z,0.06
2023-01-27T08:04:01.950Z,0.05
2023-01-27T08:05:01.605Z,0.06
2023-01-27T08:06:03.095Z,0.11
2023-01-27T08:07:03.378Z,0.19
2023-01-27T08:08:05.132Z,0.2
2023-01-27T08:09:04.344Z,0.2
2023-01-27T08:10:05.304Z,0.15
2023-01-27T08:11:06.196Z,0.27
2023-01-27T08:12:06.434Z,0.16
2023-01-27T08:13:07.544Z,0.18
2023-01-27T08:14:07.448Z,0.18
2023-01-27T08:15:07.660Z,0.19
2023-01-27T08:16:08.844Z,0.19
2023-01-27T08:17:09.268Z,0.19
2023-01-27T08:18:09.785Z,0.18
2023-01-27T08:19:09.996Z,0.24
2023-01-27T08:20:10.360Z,0.23
2023-01-27T08:21:11.605Z,0.24
2023-01-27T08:22:11.853Z,0.27
2023-01-27T08:23:12.112Z,0.27
2023-01-27T08:24:12.322Z,0.29
2023-01-27T08:25:12.866Z,0.26
2023-01-27T08:26:13.549Z,0.33
2023-01-27T08:27:14.111Z,0.31
2023-01-27T08:28:14.053Z,0.3
2023-01-27T08:29:14.985Z,0.34
2023-01-27T08:30:16.155Z,0.24
2023-01-27T08:31:16.579Z,0.12
2023-01-27T08:32:19.502Z,0.12
2023-01-27T08:33:17.434Z,0.05
2023-01-27T08:34:18.186Z,0.02
2023-01-27T08:35:18.711Z,0.01
2023-01-27T08:36:18.919Z,0.05
2023-01-27T08:37:19.895Z,0.11
2023-01-27T08:38:19.860Z,0.11
2023-01-27T08:39:20.511Z,0.13
2023-01-27T08:40:21.901Z,0.18
2023-01-27T08:41:22.530Z,0.16
2023-01-27T08:42:23.748Z,0.08
2023-01-27T08:43:24.718Z,0.06
2023-01-27T08:44:24.938Z,-0.02
2023-01-27T08:45:25.157Z,0.01
2023-01-27T08:46:25.481Z,-0.02
2023-01-27T08:47:26.439Z,-0.02
2023-01-27T08:48:26.851Z,0.05
2023-01-27T08:49:27.549Z,-0.02
2023-01-27T08:50:27.499Z,-0.03
2023-01-27T08:51:27.729Z,0
2023-01-27T08:52:28.330Z,-0.03
2023-01-27T08:53:29.068Z,0.02
2023-01-27T08:54:29.841Z,0.09
2023-01-27T08:55:30.662Z,0.06
2023-01-27T08:56:30.885Z,0.06
2023-01-27T08:57:31.406Z,0.18
2023-01-27T08:58:32.111Z,0.13
2023-01-27T08:59:32.104Z,0.16
2023-01-27T09:00:32.750Z,0.23
2023-01-27T09:01:33.162Z,0.16
2023-01-27T09:02:33.024Z,0.16
2023-01-27T09:03:33.777Z,0.11
2023-01-27T09:04:34.533Z,0.11
2023-01-27T09:05:34.724Z,0.11
2023-01-27T09:06:35.407Z,0.15
2023-01-27T09:07:36.970Z,0.11
2023-01-27T09:08:37.279Z,0.15
2023-01-27T09:09:38.500Z,0.13
2023-01-27T09:10:38.451Z,0.11
2023-01-27T09:11:38.962Z,0.13
2023-01-27T09:12:39.450Z,0.16
2023-01-27T09:13:40.528Z,0.29
2023-01-27T09:14:40.871Z,0.29
2023-01-27T09:15:40.809Z,0.4
2023-01-27T09:16:41.489Z,0.44
2023-01-27T09:17:41.418Z,0.52
2023-01-27T09:18:42.647Z,0.48
2023-01-27T09:19:42.855Z,0.59
2023-01-27T09:20:43.375Z,0.64
2023-01-27T09:21:43.702Z,0.68
2023-01-27T09:22:43.729Z,0.78
2023-01-27T09:23:44.728Z,0.84
2023-01-27T09:24:45.629Z,0.86
2023-01-27T09:25:45.877Z,0.94
2023-01-27T09:26:46.812Z,0.95
2023-01-27T09:27:47.417Z,1
2023-01-27T09:28:47.943Z,0.99
2023-01-27T09:29:48.172Z,1.02
2023-01-27T09:30:51.776Z,1.12
2023-01-27T09:31:49.695Z,0.99
2023-01-27T09:32:49.508Z,1.03
2023-01-27T09:33:50.778Z,1.03
2023-01-27T09:34:51.091Z,0.99
2023-01-27T09:35:51.314Z,1
2023-01-27T09:36:51.818Z,1.13
2023-01-27T09:37:52.108Z,1.09
2023-01-27T09:38:52.405Z,1.07
2023-01-27T09:39:53.342Z,1.04
2023-01-27T09:40:54.268Z,1.06
2023-01-27T09:41:54.649Z,1.06
2023-01-27T09:42:55.142Z,1.06
2023-01-27T09:43:55.361Z,1.16
2023-01-27T09:44:56.428Z,1.06
2023-01-27T09:45:57.188Z,1.09
2023-01-27T09:47:00.541Z,1.16
2023-01-27T09:47:57.446Z,1.16
2023-01-27T09:48:58.079Z,1.12
2023-01-27T09:49:58.299Z,1.22
2023-01-27T09:50:58.856Z,1.28
2023-01-27T09:51:59.396Z,1.28
2023-01-27T09:52:59.995Z,1.25
2023-01-27T09:54:00.002Z,1.28
2023-01-27T09:55:00.871Z,1.32
2023-01-27T09:56:01.623Z,1.38
2023-01-27T09:57:01.779Z,1.4
2023-01-27T09:58:02.755Z,1.4
2023-01-27T09:59:03.764Z,1.45
2023-01-27T10:00:03.740Z,1.45
2023-01-27T10:01:04.238Z,1.45
2023-01-27T10:02:05.600Z,1.38
2023-01-27T10:03:06.100Z,1.42
2023-01-27T10:04:06.502Z,1.43
2023-01-27T10:05:07.731Z,1.4
2023-01-27T10:06:08.934Z,1.4
2023-01-27T10:07:09.184Z,1.38
2023-01-27T10:08:09.457Z,1.43
2023-01-27T10:09:10.002Z,1.42
2023-01-27T10:10:09.944Z,1.42
2023-01-27T10:11:10.635Z,1.38
2023-01-27T10:12:11.140Z,1.45
2023-01-27T10:13:11.070Z,1.45
2023-01-27T10:14:12.356Z,1.53
2023-01-27T10:15:12.678Z,1.53
2023-01-27T10:16:12.983Z,1.42
2023-01-27T10:17:14.081Z,1.38
2023-01-27T10:18:14.028Z,1.28
2023-01-27T10:19:14.530Z,1.42
2023-01-27T10:20:15.567Z,1.3
2023-01-27T10:21:15.845Z,1.34
2023-01-27T10:22:15.778Z,1.3
2023-01-27T10:23:17.340Z,1.4
2023-01-27T10:24:18.378Z,1.36
2023-01-27T10:25:19.034Z,1.4
2023-01-27T10:26:18.962Z,1.49
2023-01-27T10:27:19.609Z,1.42
2023-01-27T10:28:20.821Z,1.56
2023-01-27T10:29:22.089Z,1.6
2023-01-27T10:30:22.545Z,1.58
2023-01-27T10:31:23.085Z,1.66
2023-01-27T10:32:23.106Z,1.61
2023-01-27T10:33:24.352Z,1.74
2023-01-27T10:34:24.556Z,1.74
2023-01-27T10:35:25.329Z,1.79
2023-01-27T10:36:25.925Z,1.81
2023-01-27T10:37:26.172Z,1.76
2023-01-27T10:38:26.494Z,1.71
2023-01-27T10:39:27.015Z,1.7
2023-01-27T10:40:27.266Z,1.67
2023-01-27T10:41:27.752Z,1.68
2023-01-27T10:42:28.262Z,1.7
2023-01-27T10:43:28.500Z,1.67
2023-01-27T10:44:29.772Z,1.68
2023-01-27T10:45:30.568Z,1.66
2023-01-27T10:46:31.192Z,1.64
2023-01-27T10:47:30.992Z,1.76
2023-01-27T10:48:32.482Z,1.81
2023-01-27T10:49:32.454Z,1.82
2023-01-27T10:50:32.388Z,1.82
2023-01-27T10:51:33.732Z,1.89
2023-01-27T10:52:34.684Z,1.88
2023-01-27T10:53:35.635Z,1.98
2023-01-27T10:54:36.158Z,2
2023-01-27T10:55:36.533Z,2.08
2023-01-27T10:56:37.592Z,2.1
2023-01-27T10:57:38.146Z,2.25
2023-01-27T10:58:38.354Z,2.23
2023-01-27T10:59:38.330Z,2.33
2023-01-27T11:01:24.004Z,2.34
2023-01-27T11:01:42.028Z,2.36
2023-01-27T11:02:42.072Z,2.37
2023-01-27T11:03:42.856Z,2.33
2023-01-27T11:04:43.940Z,2.34
2023-01-27T11:05:44.964Z,2.41
2023-01-27T11:06:45.318Z,2.43
2023-01-27T11:07:46.288Z,2.39
2023-01-27T11:08:47.297Z,2.4
2023-01-27T11:09:47.596Z,2.43
2023-01-27T11:10:48.098Z,2.32
2023-01-27T11:11:48.307Z,2.34
2023-01-27T11:12:48.550Z,2.34
2023-01-27T11:13:48.787Z,2.33
2023-01-27T11:14:49.053Z,2.23
2023-01-27T11:15:50.160Z,2.37
2023-01-27T11:16:50.295Z,2.34
2023-01-27T11:17:51.510Z,2.36
2023-01-27T11:18:51.738Z,2.39
2023-01-27T11:19:51.958Z,2.39
2023-01-27T11:20:54.843Z,2.28
2023-01-27T11:22:09.194Z,2.22
2023-01-27T11:22:53.449Z,2.21
2023-01-27T11:23:53.748Z,2.23
2023-01-27T11:24:54.525Z,2.18
2023-01-27T11:25:55.585Z,2.36
2023-01-27T11:26:55.820Z,2.32
2023-01-27T11:27:56.774Z,2.34
2023-01-27T11:28:56.803Z,2.33
2023-01-27T11:29:57.908Z,2.4
2023-01-27T11:30:57.719Z,2.36
2023-01-27T11:31:58.910Z,2.37
2023-01-27T11:32:59.087Z,2.34
2023-01-27T11:34:00.338Z,2.34
2023-01-27T11:35:00.579Z,2.39
2023-01-27T11:36:00.938Z,2.41
2023-01-27T11:37:02.142Z,2.4
2023-01-27T11:38:16.230Z,2.36
2023-01-27T11:39:02.917Z,2.43
2023-01-27T11:40:03.459Z,2.4
2023-01-27T11:41:04.081Z,2.36
2023-01-27T11:42:04.001Z,2.33
2023-01-27T11:43:04.532Z,2.43
2023-01-27T11:44:04.741Z,2.41
2023-01-27T11:45:04.754Z,2.34
2023-01-27T11:46:05.941Z,2.37
2023-01-27T11:47:06.313Z,2.25
2023-01-27T11:48:06.536Z,2.21
2023-01-27T11:49:07.784Z,2.1
2023-01-27T11:50:08.765Z,2.18
2023-01-27T11:51:09.907Z,2.1
2023-01-27T11:52:10.510Z,2.15
2023-01-27T11:53:10.451Z,2.15
2023-01-27T11:54:11.797Z,2.16
2023-01-27T11:55:12.037Z,2.19
2023-01-27T11:56:16.261Z,2.16
2023-01-27T11:57:13.467Z,2.18
2023-01-27T11:58:13.688Z,2.22
2023-01-27T11:59:14.997Z,2.26
2023-01-27T12:00:16.318Z,2.3
2023-01-27T12:01:16.575Z,2.26
2023-01-27T12:02:16.792Z,2.37
2023-01-27T12:03:16.786Z,2.44
2023-01-27T12:04:17.427Z,2.36
2023-01-27T12:05:17.815Z,2.36
2023-01-27T12:06:19.123Z,2.37
2023-01-27T12:07:19.460Z,2.3
2023-01-27T12:08:19.953Z,2.3
2023-01-27T12:09:20.300Z,2.22
2023-01-27T12:10:21.806Z,2.33
2023-01-27T12:11:21.946Z,2.4
2023-01-27T12:12:21.599Z,2.43
2023-01-27T12:13:22.084Z,2.5
2023-01-27T12:14:22.705Z,2.59
2023-01-27T12:15:23.959Z,2.61
2023-01-27T12:16:24.955Z,2.58
2023-01-27T12:17:24.897Z,2.57
2023-01-27T12:18:25.848Z,2.54
2023-01-27T12:19:26.001Z,2.58
2023-01-27T12:20:26.369Z,2.55
2023-01-27T12:21:27.276Z,2.54
2023-01-27T12:22:27.772Z,2.58
2023-01-27T12:23:27.443Z,2.64
2023-01-27T12:24:28.714Z,2.68
2023-01-27T12:25:29.022Z,2.73
2023-01-27T12:26:29.481Z,2.69
2023-01-27T12:27:30.401Z,2.55
2023-01-27T12:28:31.642Z,2.58
2023-01-27T12:29:32.548Z,2.57
2023-01-27T12:30:33.482Z,2.58
2023-01-27T12:31:34.626Z,2.46
2023-01-27T12:32:35.089Z,2.52
2023-01-27T12:33:36.016Z,2.54
2023-01-27T12:34:36.726Z,2.52
2023-01-27T12:35:37.255Z,2.55
2023-01-27T12:36:38.278Z,2.64
2023-01-27T12:37:38.534Z,2.58
2023-01-27T12:38:39.443Z,2.54
2023-01-27T12:39:39.972Z,2.51
2023-01-27T12:40:40.262Z,2.46
2023-01-27T12:41:40.766Z,2.39
2023-01-27T12:42:41.747Z,2.3
2023-01-27T12:43:42.242Z,2.25
2023-01-27T12:44:42.464Z,2.19
2023-01-27T12:45:42.703Z,2.05
2023-01-27T12:46:43.563Z,1.97
2023-01-27T12:47:43.559Z,1.95
2023-01-27T12:48:44.491Z,1.95
2023-01-27T12:49:44.793Z,1.79
2023-01-27T12:50:45.757Z,1.82
2023-01-27T12:51:46.481Z,1.67
2023-01-27T12:52:47.400Z,1.81
2023-01-27T12:53:47.374Z,1.79
2023-01-27T12:54:47.929Z,1.75
2023-01-27T12:55:48.500Z,1.71
2023-01-27T12:56:48.560Z,1.79
2023-01-27T12:57:49.913Z,1.84
2023-01-27T12:58:52.807Z,1.92
2023-01-27T12:59:51.023Z,1.84
2023-01-27T13:00:51.962Z,1.86
2023-01-27T13:01:52.551Z,1.92
2023-01-27T13:02:53.184Z,1.79
2023-01-27T13:03:54.405Z,1.85
2023-01-27T13:04:54.670Z,1.81
2023-01-27T13:05:55.624Z,1.79
2023-01-27T13:06:56.213Z,1.82
2023-01-27T13:07:56.420Z,1.84
2023-01-27T13:08:57.340Z,1.76
2023-01-27T13:09:57.297Z,1.79
2023-01-27T13:10:57.283Z,1.78
2023-01-27T13:11:58.849Z,1.75
2023-01-27T13:12:59.514Z,1.75
2023-01-27T13:13:59.726Z,1.82